Time,TemperatureF,DewpointF,PressureIn,WindDirection,WindDirectionDegrees,WindSpeedMPH,WindSpeedGustMPH,Humidity,HourlyPrecipIn,Conditions,Clouds,dailyrainin,SoftwareType,DateUTC
2013-06-18 00:02:00,57.0,-99.9,-100.00,North,0,0.0,0.0,-999,0.00,,,-99.99,,2013-06-18 06:02:00,
2013-06-18 00:12:00,57.0,-99.9,-100.00,North,0,0.0,0.0,-999,0.00,,,-99.99,,2013-06-18 06:12:00,
2013-06-18 00:24:00,56.0,-99.9,-100.00,South,176,2.0,4.0,-999,0.00,,,-99.99,,2013-06-18 06:24:00,
2013-06-18 00:33:00,56.0,-99.9,-100.00,North,0,0.0,0.0,-999,0.00,,,-99.99,,2013-06-18 06:33:00,
2013-06-18 00:43:00,56.0,-99.9,-100.00,North,0,0.0,0.0,-999,0.00,,,-99.99,,2013-06-18 06:43:00,
2013-06-18 00:53:00,56.0,-99.9,-100.00,SE,141,0.0,3.0,-999,0.00,,,-99.99,,2013-06-18 06:53:00,
2013-06-18 01:02:00,56.0,-99.9,-100.00,South,176,1.0,5.0,-999,0.00,,,-99.99,,2013-06-18 07:02:00,
2013-06-18 01:12:00,55.0,-99.9,-100.00,North,0,0.0,0.0,-999,0.00,,,-99.99,,2013-06-18 07:12:00,
2013-06-18 01:22:00,55.0,-99.9,-100.00,South,174,1.0,4.0,-999,0.00,,,-99.99,,2013-06-18 07:22:00,
2013-06-18 01:33:00,54.0,-99.9,-100.00,North,0,0.0,0.0,-999,0.00,,,-99.99,,2013-06-18 07:33:00,
2013-06-18 01:43:00,54.0,-99.9,-100.00,North,0,0.0,0.0,-999,0.00,,,-99.99,,2013-06-18 07:43:00,
2013-06-18 01:53:00,54.0,-99.9,-100.00,SSE,148,0.0,2.0,-999,0.00,,,-99.99,,2013-06-18 07:53:00,
2013-06-18 02:02:00,54.0,-99.9,-100.00,North,0,0.0,0.0,-999,0.00,,,-99.99,,2013-06-18 08:02:00,
2013-06-18 02:11:00,54.0,-99.9,-100.00,North,0,0.0,0.0,-999,0.00,,,-99.99,,2013-06-18 08:11:00,
2013-06-18 02:23:00,54.0,-99.9,-100.00,South,186,1.0,4.0,-999,0.00,,,-99.99,,2013-06-18 08:23:00,
2013-06-18 02:33:00,54.0,-99.9,-100.00,SSW,207,2.0,5.0,-999,0.00,,,-99.99,,2013-06-18 08:33:00,
2013-06-18 02:43:00,54.0,-99.9,-100.00,SSE,153,3.0,5.0,-999,0.00,,,-99.99,,2013-06-18 08:43:00,
2013-06-18 02:52:00,54.0,-99.9,-100.00,South,174,1.0,5.0,-999,0.00,,,-99.99,,2013-06-18 08:52:00,
2013-06-18 03:02:00,54.0,-99.9,-100.00,South,170,3.0,5.0,-999,0.00,,,-99.99,,2013-06-18 09:02:00,
2013-06-18 03:12:00,54.0,-99.9,-100.00,South,170,0.0,1.0,-999,0.00,,,-99.99,,2013-06-18 09:12:00,
2013-06-18 03:22:00,53.0,-99.9,-100.00,SSE,148,1.0,3.0,-999,0.00,,,-99.99,,2013-06-18 09:22:00,
2013-06-18 03:34:00,53.0,-99.9,-100.00,North,0,0.0,0.0,-999,0.00,,,-99.99,,2013-06-18 09:34:00,
2013-06-18 03:43:00,53.0,-99.9,-100.00,SSE,150,1.0,4.0,-999,0.00,,,-99.99,,2013-06-18 09:43:00,
2013-06-18 03:53:00,53.0,-99.9,-100.00,SSE,150,1.0,4.0,-999,0.00,,,-99.99,,2013-06-18 09:53:00,
2013-06-18 04:02:00,53.0,-99.9,-100.00,SSW,200,2.0,4.0,-999,0.00,,,-99.99,,2013-06-18 10:02:00,
2013-06-18 04:12:00,53.0,-99.9,-100.00,South,188,2.0,5.0,-999,0.00,,,-99.99,,2013-06-18 10:12:00,
2013-06-18 04:22:00,53.0,-99.9,-100.00,South,174,1.0,4.0,-999,0.00,,,-99.99,,2013-06-18 10:22:00,
2013-06-18 04:33:00,53.0,-99.9,-100.00,SE,141,1.0,4.0,-999,0.00,,,-99.99,,2013-06-18 10:33:00,
2013-06-18 04:43:00,53.0,-99.9,-100.00,North,0,0.0,0.0,-999,0.00,,,-99.99,,2013-06-18 10:43:00,
2013-06-18 04:53:00,53.0,-99.9,-100.00,North,0,0.0,0.0,-999,0.00,,,-99.99,,2013-06-18 10:53:00,
2013-06-18 05:02:00,52.0,-99.9,-100.00,North,0,0.0,0.0,-999,0.00,,,-99.99,,2013-06-18 11:02:00,
2013-06-18 05:11:00,52.0,-99.9,-100.00,North,0,0.0,0.0,-999,0.00,,,-99.99,,2013-06-18 11:11:00,
2013-06-18 05:22:00,52.0,-99.9,-100.00,North,0,0.0,0.0,-999,0.00,,,-99.99,,2013-06-18 11:22:00,
2013-06-18 05:32:00,52.0,-99.9,-100.00,North,0,0.0,0.0,-999,0.00,,,-99.99,,2013-06-18 11:32:00,
2013-06-18 05:43:00,52.0,-99.9,-100.00,North,0,0.0,0.0,-999,0.00,,,-99.99,,2013-06-18 11:43:00,
2013-06-18 05:52:00,51.0,-99.9,-100.00,North,0,0.0,0.0,-999,0.00,,,-99.99,,2013-06-18 11:52:00,
2013-06-18 06:02:00,52.0,-99.9,-100.00,North,0,0.0,0.0,-999,0.00,,,-99.99,,2013-06-18 12:02:00,
2013-06-18 06:12:00,53.0,-99.9,-100.00,North,0,0.0,0.0,-999,0.00,,,-99.99,,2013-06-18 12:12:00,
2013-06-18 06:22:00,54.0,-99.9,-100.00,North,0,0.0,0.0,-999,0.00,,,-99.99,,2013-06-18 12:22:00,
2013-06-18 06:33:00,55.0,-99.9,-100.00,South,176,1.0,5.0,-999,0.00,,,-99.99,,2013-06-18 12:33:00,
2013-06-18 06:43:00,56.0,-99.9,-100.00,SSE,152,1.0,5.0,-999,0.00,,,-99.99,,2013-06-18 12:43:00,
2013-06-18 06:52:00,57.0,-99.9,-100.00,SE,146,2.0,4.0,-999,0.00,,,-99.99,,2013-06-18 12:52:00,
2013-06-18 07:02:00,58.0,-99.9,-100.00,SSW,208,2.0,5.0,-999,0.00,,,-99.99,,2013-06-18 13:02:00,
2013-06-18 07:12:00,58.0,-99.9,-100.00,South,181,4.0,6.0,-999,0.00,,,-99.99,,2013-06-18 13:12:00,
2013-06-18 07:22:00,59.0,-99.9,-100.00,South,179,4.0,6.0,-999,0.00,,,-99.99,,2013-06-18 13:22:00,
2013-06-18 07:34:00,59.0,-99.9,-100.00,South,179,4.0,6.0,-999,0.00,,,-99.99,,2013-06-18 13:34:00,
2013-06-18 07:43:00,60.0,-99.9,-100.00,South,186,4.0,6.0,-999,0.00,,,-99.99,,2013-06-18 13:43:00,
2013-06-18 07:53:00,61.0,-99.9,-100.00,SE,132,5.0,6.0,-999,0.00,,,-99.99,,2013-06-18 13:53:00,
2013-06-18 08:02:00,61.0,-99.9,-100.00,South,179,3.0,6.0,-999,0.00,,,-99.99,,2013-06-18 14:02:00,
2013-06-18 08:12:00,62.0,-99.9,-100.00,South,177,0.0,2.0,-999,0.00,,,-99.99,,2013-06-18 14:12:00,
2013-06-18 08:22:00,62.0,-99.9,-100.00,South,177,3.0,5.0,-999,0.00,,,-99.99,,2013-06-18 14:22:00,
2013-06-18 08:33:00,63.0,-99.9,-100.00,SSE,162,3.0,5.0,-999,0.00,,,-99.99,,2013-06-18 14:33:00,
2013-06-18 08:43:00,64.0,-99.9,-100.00,SSE,165,4.0,6.0,-999,0.00,,,-99.99,,2013-06-18 14:43:00,
2013-06-18 08:53:00,63.0,-99.9,-100.00,SSW,197,4.0,6.0,-999,0.00,,,-99.99,,2013-06-18 14:53:00,
2013-06-18 09:02:00,65.0,-99.9,-100.00,South,181,3.0,6.0,-999,0.00,,,-99.99,,2013-06-18 15:02:00,
2013-06-18 09:11:00,66.0,-99.9,-100.00,SSE,167,4.0,7.0,-999,0.00,,,-99.99,,2013-06-18 15:11:00,
2013-06-18 09:22:00,67.0,-99.9,-100.00,South,191,3.0,6.0,-999,0.00,,,-99.99,,2013-06-18 15:22:00,
2013-06-18 09:33:00,68.0,-99.9,-100.00,SE,124,3.0,6.0,-999,0.00,,,-99.99,,2013-06-18 15:33:00,
2013-06-18 09:43:00,68.0,-99.9,-100.00,SSE,162,4.0,6.0,-999,0.00,,,-99.99,,2013-06-18 15:43:00,
2013-06-18 09:53:00,69.0,-99.9,-100.00,South,174,4.0,6.0,-999,0.00,,,-99.99,,2013-06-18 15:53:00,
2013-06-18 10:02:00,69.0,-99.9,-100.00,SSE,167,2.0,6.0,-999,0.00,,,-99.99,,2013-06-18 16:02:00,
2013-06-18 10:12:00,70.0,-99.9,-100.00,SSE,150,4.0,6.0,-999,0.00,,,-99.99,,2013-06-18 16:12:00,
2013-06-18 10:23:00,71.0,-99.9,-100.00,South,177,3.0,6.0,-999,0.00,,,-99.99,,2013-06-18 16:23:00,
2013-06-18 10:33:00,71.0,-99.9,-100.00,South,184,3.0,5.0,-999,0.00,,,-99.99,,2013-06-18 16:33:00,
2013-06-18 10:43:00,72.0,-99.9,-100.00,South,170,4.0,7.0,-999,0.00,,,-99.99,,2013-06-18 16:43:00,
2013-06-18 10:53:00,73.0,-99.9,-100.00,SSW,211,5.0,6.0,-999,0.00,,,-99.99,,2013-06-18 16:53:00,
2013-06-18 11:02:00,74.0,-99.9,-100.00,SSW,208,5.0,7.0,-999,0.00,,,-99.99,,2013-06-18 17:02:00,
2013-06-18 11:12:00,74.0,-99.9,-100.00,ESE,108,4.0,7.0,-999,0.00,,,-99.99,,2013-06-18 17:12:00,
2013-06-18 11:23:00,75.0,-99.9,-100.00,South,169,5.0,7.0,-999,0.00,,,-99.99,,2013-06-18 17:23:00,
2013-06-18 11:34:00,76.0,-99.9,-100.00,South,183,5.0,7.0,-999,0.00,,,-99.99,,2013-06-18 17:34:00,
2013-06-18 11:43:00,77.0,-99.9,-100.00,South,188,4.0,6.0,-999,0.00,,,-99.99,,2013-06-18 17:43:00,
2013-06-18 11:53:00,77.0,-99.9,-100.00,SE,143,4.0,8.0,-999,0.00,,,-99.99,,2013-06-18 17:53:00,
2013-06-18 12:02:00,78.0,-99.9,-100.00,SSE,166,4.0,7.0,-999,0.00,,,-99.99,,2013-06-18 18:02:00,
2013-06-18 12:12:00,77.0,-99.9,-100.00,SSW,197,5.0,7.0,-999,0.00,,,-99.99,,2013-06-18 18:12:00,
2013-06-18 12:22:00,78.0,-99.9,-100.00,South,172,5.0,7.0,-999,0.00,,,-99.99,,2013-06-18 18:22:00,
2013-06-18 12:33:00,78.0,-99.9,-100.00,SE,146,5.0,8.0,-999,0.00,,,-99.99,,2013-06-18 18:33:00,
2013-06-18 12:43:00,79.0,-99.9,-100.00,SE,135,6.0,9.0,-999,0.00,,,-99.99,,2013-06-18 18:43:00,
2013-06-18 12:53:00,79.0,-99.9,-100.00,SE,125,5.0,8.0,-999,0.00,,,-99.99,,2013-06-18 18:53:00,
2013-06-18 13:02:00,80.0,-99.9,-100.00,SSE,155,5.0,8.0,-999,0.00,,,-99.99,,2013-06-18 19:02:00,
2013-06-18 13:12:00,80.0,-99.9,-100.00,SSE,163,6.0,8.0,-999,0.00,,,-99.99,,2013-06-18 19:12:00,
2013-06-18 13:22:00,80.0,-99.9,-100.00,SSE,163,5.0,7.0,-999,0.00,,,-99.99,,2013-06-18 19:22:00,
2013-06-18 13:34:00,80.0,-99.9,-100.00,SSE,155,5.0,8.0,-999,0.00,,,-99.99,,2013-06-18 19:34:00,
2013-06-18 13:43:00,80.0,-99.9,-100.00,SSE,150,6.0,9.0,-999,0.00,,,-99.99,,2013-06-18 19:43:00,
2013-06-18 13:53:00,80.0,-99.9,-100.00,South,177,6.0,8.0,-999,0.00,,,-99.99,,2013-06-18 19:53:00,
2013-06-18 14:02:00,81.0,-99.9,-100.00,SE,146,6.0,8.0,-999,0.00,,,-99.99,,2013-06-18 20:02:00,
2013-06-18 14:12:00,80.0,-99.9,-100.00,South,179,6.0,8.0,-999,0.00,,,-99.99,,2013-06-18 20:12:00,
2013-06-18 14:23:00,80.0,-99.9,-100.00,South,169,6.0,9.0,-999,0.00,,,-99.99,,2013-06-18 20:23:00,
2013-06-18 14:33:00,82.0,-99.9,-100.00,South,174,6.0,8.0,-999,0.00,,,-99.99,,2013-06-18 20:33:00,
2013-06-18 14:43:00,81.0,-99.9,-100.00,South,180,7.0,9.0,-999,0.00,,,-99.99,,2013-06-18 20:43:00,
2013-06-18 14:53:00,82.0,-99.9,-100.00,SSE,166,6.0,9.0,-999,0.00,,,-99.99,,2013-06-18 20:53:00,
2013-06-18 15:02:00,82.0,-99.9,-100.00,SSE,162,7.0,9.0,-999,0.00,,,-99.99,,2013-06-18 21:02:00,
2013-06-18 15:12:00,82.0,-99.9,-100.00,SSE,155,6.0,9.0,-999,0.00,,,-99.99,,2013-06-18 21:12:00,
2013-06-18 15:23:00,82.0,-99.9,-100.00,South,177,6.0,8.0,-999,0.00,,,-99.99,,2013-06-18 21:23:00,
2013-06-18 15:33:00,83.0,-99.9,-100.00,South,188,6.0,9.0,-999,0.00,,,-99.99,,2013-06-18 21:33:00,
2013-06-18 15:43:00,83.0,-99.9,-100.00,South,190,7.0,9.0,-999,0.00,,,-99.99,,2013-06-18 21:43:00,
2013-06-18 15:53:00,83.0,-99.9,-100.00,South,190,6.0,8.0,-999,0.00,,,-99.99,,2013-06-18 21:53:00,
2013-06-18 16:02:00,84.0,-99.9,-100.00,South,188,6.0,8.0,-999,0.00,,,-99.99,,2013-06-18 22:02:00,
2013-06-18 16:12:00,84.0,-99.9,-100.00,SE,131,6.0,10.0,-999,0.00,,,-99.99,,2013-06-18 22:12:00,
2013-06-18 16:22:00,84.0,-99.9,-100.00,South,183,7.0,9.0,-999,0.00,,,-99.99,,2013-06-18 22:22:00,
2013-06-18 16:34:00,85.0,-99.9,-100.00,SSE,158,6.0,8.0,-999,0.00,,,-99.99,,2013-06-18 22:34:00,
2013-06-18 16:43:00,85.0,-99.9,-100.00,SSE,158,6.0,8.0,-999,0.00,,,-99.99,,2013-06-18 22:43:00,
2013-06-18 16:53:00,87.0,-99.9,-100.00,South,183,5.0,8.0,-999,0.00,,,-99.99,,2013-06-18 22:53:00,
2013-06-18 17:02:00,85.0,-99.9,-100.00,SE,143,6.0,9.0,-999,0.00,,,-99.99,,2013-06-18 23:02:00,
2013-06-18 17:12:00,85.0,-99.9,-100.00,SE,138,6.0,9.0,-999,0.00,,,-99.99,,2013-06-18 23:12:00,
2013-06-18 17:23:00,87.0,-99.9,-100.00,South,174,6.0,9.0,-999,0.00,,,-99.99,,2013-06-18 23:23:00,
2013-06-18 17:40:00,87.0,-99.9,-100.00,SSE,165,6.0,10.0,-999,0.00,,,-99.99,,2013-06-18 23:40:00,
2013-06-18 17:49:00,87.0,-99.9,-100.00,South,170,6.0,8.0,-999,0.00,,,-99.99,,2013-06-18 23:49:00,
2013-06-18 18:02:00,85.0,-99.9,-100.00,South,170,7.0,9.0,-999,0.00,,,-99.99,,2013-06-19 00:02:00,
2013-06-18 18:12:00,87.0,-99.9,-100.00,SW,222,6.0,8.0,-999,0.00,,,-99.99,,2013-06-19 00:12:00,
2013-06-18 18:22:00,85.0,-99.9,-100.00,South,172,7.0,9.0,-999,0.00,,,-99.99,,2013-06-19 00:22:00,
2013-06-18 18:33:00,85.0,-99.9,-100.00,South,188,7.0,9.0,-999,0.00,,,-99.99,,2013-06-19 00:33:00,
2013-06-18 18:43:00,85.0,-99.9,-100.00,South,188,7.0,9.0,-999,0.00,,,-99.99,,2013-06-19 00:43:00,
2013-06-18 18:53:00,84.0,-99.9,-100.00,South,191,6.0,8.0,-999,0.00,,,-99.99,,2013-06-19 00:53:00,
2013-06-18 19:02:00,84.0,-99.9,-100.00,South,180,6.0,9.0,-999,0.00,,,-99.99,,2013-06-19 01:02:00,
2013-06-18 19:12:00,83.0,-99.9,-100.00,South,176,6.0,9.0,-999,0.00,,,-99.99,,2013-06-19 01:12:00,
2013-06-18 19:22:00,83.0,-99.9,-100.00,South,176,6.0,9.0,-999,0.00,,,-99.99,,2013-06-19 01:22:00,
2013-06-18 19:32:00,83.0,-99.9,-100.00,SSW,195,6.0,9.0,-999,0.00,,,-99.99,,2013-06-19 01:32:00,
2013-06-18 19:43:00,83.0,-99.9,-100.00,SSW,195,6.0,9.0,-999,0.00,,,-99.99,,2013-06-19 01:43:00,
2013-06-18 19:53:00,83.0,-99.9,-100.00,SSW,195,6.0,9.0,-999,0.00,,,-99.99,,2013-06-19 01:53:00,
2013-06-18 20:02:00,83.0,-99.9,-100.00,SSW,195,6.0,9.0,-999,0.00,,,-99.99,,2013-06-19 02:02:00,
2013-06-18 20:11:00,83.0,-99.9,-100.00,SSE,158,6.0,8.0,-999,0.00,,,-99.99,,2013-06-19 02:11:00,
2013-06-18 20:21:00,83.0,-99.9,-100.00,SSE,158,6.0,8.0,-999,0.00,,,-99.99,,2013-06-19 02:21:00,
2013-06-18 20:33:00,76.0,-99.9,-100.00,SE,135,5.0,9.0,-999,0.00,,,-99.99,,2013-06-19 02:33:00,
2013-06-18 20:43:00,74.0,-99.9,-100.00,SSE,156,6.0,8.0,-999,0.00,,,-99.99,,2013-06-19 02:43:00,
2013-06-18 20:52:00,74.0,-99.9,-100.00,SSE,156,6.0,8.0,-999,0.00,,,-99.99,,2013-06-19 02:52:00,
2013-06-18 21:01:00,74.0,-99.9,-100.00,SSE,156,6.0,8.0,-999,0.00,,,-99.99,,2013-06-19 03:01:00,
2013-06-18 21:12:00,72.0,-99.9,-100.00,South,173,5.0,7.0,-999,0.00,,,-99.99,,2013-06-19 03:12:00,
2013-06-18 21:22:00,71.0,-99.9,-100.00,South,191,5.0,7.0,-999,0.00,,,-99.99,,2013-06-19 03:22:00,
2013-06-18 21:33:00,71.0,-99.9,-100.00,SSW,201,5.0,8.0,-999,0.00,,,-99.99,,2013-06-19 03:33:00,
2013-06-18 21:43:00,71.0,-99.9,-100.00,SSE,160,6.0,8.0,-999,0.00,,,-99.99,,2013-06-19 03:43:00,
2013-06-18 21:53:00,71.0,-99.9,-100.00,SSE,165,6.0,8.0,-999,0.00,,,-99.99,,2013-06-19 03:53:00,
2013-06-18 22:02:00,71.0,-99.9,-100.00,South,186,6.0,9.0,-999,0.00,,,-99.99,,2013-06-19 04:02:00,
2013-06-18 22:12:00,71.0,-99.9,-100.00,South,186,6.0,9.0,-999,0.00,,,-99.99,,2013-06-19 04:12:00,
2013-06-18 22:23:00,71.0,-99.9,-100.00,South,186,6.0,9.0,-999,0.00,,,-99.99,,2013-06-19 04:23:00,
2013-06-18 22:33:00,71.0,-99.9,-100.00,South,186,6.0,9.0,-999,0.00,,,-99.99,,2013-06-19 04:33:00,
2013-06-18 22:53:00,70.0,-99.9,-100.00,SSE,162,6.0,9.0,-999,0.00,,,-99.99,,2013-06-19 04:53:00,
2013-06-18 23:01:00,70.0,-99.9,-100.00,SSE,162,6.0,9.0,-999,0.00,,,-99.99,,2013-06-19 05:01:00,
2013-06-18 23:11:00,70.0,-99.9,-100.00,SSE,152,6.0,8.0,-999,0.00,,,-99.99,,2013-06-19 05:11:00,
2013-06-18 23:23:00,70.0,-99.9,-100.00,SSE,152,6.0,8.0,-999,0.00,,,-99.99,,2013-06-19 05:23:00,
2013-06-18 23:33:00,69.0,-99.9,-100.00,South,174,6.0,9.0,-999,0.00,,,-99.99,,2013-06-19 05:33:00,
2013-06-18 23:43:00,70.0,-99.9,-100.00,South,191,7.0,9.0,-999,0.00,,,-99.99,,2013-06-19 05:43:00,
2013-06-18 23:52:00,69.0,-99.9,-100.00,South,190,6.0,8.0,-999,0.00,,,-99.99,,2013-06-19 05:52:00,